Time,TemperatureF,DewpointF,PressureIn,WindDirection,WindDirectionDegrees,WindSpeedMPH,WindSpeedGustMPH,Humidity,HourlyPrecipIn,Conditions,Clouds,dailyrainin,SoftwareType,DateUTC
2013-07-01 00:01:00,68.0,65.0,-100.00,NE,50,0.0,0.0,92,0.00,,,-99.99,,2013-07-01 04:01:00,
2013-07-01 00:11:00,67.0,65.0,-100.00,NE,40,0.0,0.0,92,0.00,,,-99.99,,2013-07-01 04:11:00,
2013-07-01 00:22:00,68.0,65.0,-100.00,ESE,105,0.0,0.0,92,0.00,,,-99.99,,2013-07-01 04:22:00,
2013-07-01 00:32:00,68.0,65.0,-100.00,NE,35,0.0,0.0,92,0.00,,,-99.99,,2013-07-01 04:32:00,
2013-07-01 00:43:00,67.0,65.0,-100.00,NNE,30,0.0,0.0,92,0.00,,,-99.99,,2013-07-01 04:43:00,
2013-07-01 00:53:00,68.0,66.0,-100.00,North,350,0.0,0.0,92,0.00,,,-99.99,,2013-07-01 04:53:00,
2013-07-01 01:02:00,67.0,65.0,-100.00,ENE,70,0.0,0.0,92,0.00,,,-99.99,,2013-07-01 05:02:00,
2013-07-01 01:11:00,67.0,65.0,-100.00,NE,35,0.0,0.0,92,0.00,,,-99.99,,2013-07-01 05:11:00,
2013-07-01 01:22:00,68.0,66.0,-100.00,ESE,105,0.0,0.0,92,0.00,,,-99.99,,2013-07-01 05:22:00,
2013-07-01 01:33:00,67.0,65.0,-100.00,NE,50,0.0,0.0,92,0.00,,,-99.99,,2013-07-01 05:33:00,
2013-07-01 01:42:00,67.0,65.0,-100.00,SSE,160,0.0,0.0,92,0.00,,,-99.99,,2013-07-01 05:42:00,
2013-07-01 02:02:00,68.0,65.0,-100.00,NE,50,0.0,0.0,92,0.00,,,-99.99,,2013-07-01 06:02:00,
2013-07-01 02:12:00,68.0,65.0,-100.00,NE,35,0.0,0.0,92,0.00,,,-99.99,,2013-07-01 06:12:00,
2013-07-01 02:24:00,68.0,66.0,-100.00,NNE,15,0.0,0.0,92,0.00,,,-99.99,,2013-07-01 06:24:00,
2013-07-01 02:33:00,68.0,66.0,-100.00,SE,145,6.0,8.0,93,0.00,,,-99.99,,2013-07-01 06:33:00,
2013-07-01 02:43:00,68.0,66.0,-100.00,NNE,30,1.0,11.0,92,3.94,,,-99.99,,2013-07-01 06:43:00,
2013-07-01 02:53:00,68.0,66.0,-100.00,NW,325,0.0,3.0,93,1.10,,,-99.99,,2013-07-01 06:53:00,
2013-07-01 03:01:00,68.0,66.0,-100.00,NNW,335,0.0,0.0,93,0.00,,,-99.99,,2013-07-01 07:01:00,
2013-07-01 03:11:00,68.0,66.0,-100.00,WNW,295,0.0,0.0,93,0.00,,,-99.99,,2013-07-01 07:11:00,
2013-07-01 03:22:00,68.0,66.0,-100.00,SSE,165,0.0,0.0,93,0.00,,,-99.99,,2013-07-01 07:22:00,
2013-07-01 03:33:00,68.0,66.0,-100.00,East,95,1.0,5.0,93,0.00,,,-99.99,,2013-07-01 07:33:00,
2013-07-01 03:43:00,66.0,64.0,-100.00,NE,35,1.0,7.0,93,0.00,,,-99.99,,2013-07-01 07:43:00,
2013-07-01 03:53:00,65.0,63.0,-100.00,East,95,1.0,5.0,93,0.00,,,-99.99,,2013-07-01 07:53:00,
2013-07-01 04:01:00,66.0,64.0,-100.00,NNE,15,0.0,2.0,93,0.00,,,-99.99,,2013-07-01 08:01:00,
2013-07-01 04:11:00,65.0,64.0,-100.00,NNE,30,0.0,0.0,92,0.00,,,-99.99,,2013-07-01 08:11:00,
2013-07-01 04:22:00,66.0,64.0,-100.00,North,355,0.0,0.0,93,0.00,,,-99.99,,2013-07-01 08:22:00,
2013-07-01 04:33:00,66.0,64.0,-100.00,ENE,75,1.0,3.0,93,0.00,,,-99.99,,2013-07-01 08:33:00,
2013-07-01 04:42:00,66.0,64.0,-100.00,East,90,1.0,8.0,93,0.00,,,-99.99,,2013-07-01 08:42:00,
2013-07-01 04:52:00,66.0,64.0,-100.00,WNW,295,3.0,6.0,93,0.55,,,-99.99,,2013-07-01 08:52:00,
2013-07-01 05:02:00,66.0,64.0,-100.00,North,355,1.0,6.0,92,0.55,,,-99.99,,2013-07-01 09:02:00,
2013-07-01 05:12:00,66.0,64.0,-100.00,WNW,285,0.0,5.0,92,0.00,,,-99.99,,2013-07-01 09:12:00,
2013-07-01 05:22:00,66.0,64.0,-100.00,NW,310,1.0,2.0,93,0.00,,,-99.99,,2013-07-01 09:22:00,
2013-07-01 05:34:00,66.0,64.0,-100.00,NW,320,1.0,6.0,92,0.00,,,-99.99,,2013-07-01 09:34:00,
2013-07-01 05:43:00,67.0,64.0,-100.00,WSW,240,0.0,4.0,92,0.00,,,-99.99,,2013-07-01 09:43:00,
2013-07-01 05:53:00,67.0,65.0,-100.00,SW,220,0.0,1.0,92,0.00,,,-99.99,,2013-07-01 09:53:00,
2013-07-01 06:03:00,66.0,64.0,-100.00,North,10,0.0,1.0,92,0.00,,,-99.99,,2013-07-01 10:03:00,
2013-07-01 06:11:00,66.0,64.0,-100.00,NNE,30,0.0,0.0,92,0.00,,,-99.99,,2013-07-01 10:11:00,
2013-07-01 06:22:00,66.0,64.0,-100.00,SE,125,0.0,0.0,92,0.00,,,-99.99,,2013-07-01 10:22:00,
2013-07-01 06:33:00,66.0,64.0,-100.00,South,170,0.0,0.0,92,0.00,,,-99.99,,2013-07-01 10:33:00,
2013-07-01 06:42:00,66.0,64.0,-100.00,SW,220,0.0,1.0,93,0.00,,,-99.99,,2013-07-01 10:42:00,
2013-07-01 06:52:00,66.0,64.0,-100.00,NNE,20,0.0,0.0,92,0.00,,,-99.99,,2013-07-01 10:52:00,
2013-07-01 07:02:00,66.0,64.0,-100.00,NNE,30,0.0,0.0,93,0.00,,,-99.99,,2013-07-01 11:02:00,
2013-07-01 07:11:00,66.0,64.0,-100.00,ESE,115,0.0,3.0,93,0.00,,,-99.99,,2013-07-01 11:11:00,
2013-07-01 07:22:00,66.0,64.0,-100.00,ESE,115,0.0,3.0,93,0.00,,,-99.99,,2013-07-01 11:22:00,
2013-07-01 07:33:00,66.0,64.0,-100.00,NE,50,0.0,0.0,93,0.00,,,-99.99,,2013-07-01 11:33:00,
2013-07-01 07:43:00,66.0,64.0,-100.00,WSW,250,0.0,2.0,93,0.00,,,-99.99,,2013-07-01 11:43:00,
2013-07-01 07:52:00,66.0,64.0,-100.00,WNW,285,0.0,1.0,93,0.00,,,-99.99,,2013-07-01 11:52:00,
2013-07-01 08:01:00,67.0,65.0,-100.00,ESE,105,0.0,3.0,93,0.00,,,-99.99,,2013-07-01 12:01:00,
2013-07-01 08:11:00,67.0,64.0,-100.00,East,100,0.0,2.0,93,0.00,,,-99.99,,2013-07-01 12:11:00,
2013-07-01 08:22:00,67.0,65.0,-100.00,SSE,155,0.0,2.0,93,0.00,,,-99.99,,2013-07-01 12:22:00,
2013-07-01 08:33:00,67.0,65.0,-100.00,East,80,0.0,3.0,92,0.00,,,-99.99,,2013-07-01 12:33:00,
2013-07-01 08:43:00,67.0,65.0,-100.00,NNE,25,0.0,3.0,91,0.00,,,-99.99,,2013-07-01 12:43:00,
2013-07-01 08:53:00,68.0,65.0,-100.00,SE,140,0.0,4.0,90,0.00,,,-99.99,,2013-07-01 12:53:00,
2013-07-01 09:02:00,68.0,65.0,-100.00,ESE,110,1.0,4.0,88,0.00,,,-99.99,,2013-07-01 13:02:00,
2013-07-01 09:12:00,69.0,65.0,-100.00,ENE,60,1.0,4.0,86,0.00,,,-99.99,,2013-07-01 13:12:00,
2013-07-01 09:23:00,70.0,65.0,-100.00,ESE,115,1.0,3.0,85,0.00,,,-99.99,,2013-07-01 13:23:00,
2013-07-01 09:53:00,73.0,65.0,-100.00,ESE,110,1.0,4.0,78,0.00,,,-99.99,,2013-07-01 13:53:00,
2013-07-01 10:34:00,75.0,65.0,-100.00,ENE,75,1.0,3.0,71,0.00,,,-99.99,,2013-07-01 14:34:00,
2013-07-01 10:43:00,75.0,65.0,-100.00,SE,130,2.0,4.0,71,0.00,,,-99.99,,2013-07-01 14:43:00,
2013-07-01 11:02:00,74.0,65.0,-100.00,SSW,205,1.0,5.0,72,0.00,,,-99.99,,2013-07-01 15:02:00,
2013-07-01 11:43:00,78.0,65.0,-100.00,SE,125,1.0,4.0,66,0.00,,,-99.99,,2013-07-01 15:43:00,
2013-07-01 12:01:00,78.0,65.0,-100.00,SSW,195,1.0,3.0,64,0.00,,,-99.99,,2013-07-01 16:01:00,
2013-07-01 12:11:00,78.0,64.0,-100.00,ESE,110,1.0,4.0,62,0.00,,,-99.99,,2013-07-01 16:11:00,
2013-07-01 13:02:00,79.0,64.0,-100.00,West,275,1.0,2.0,60,0.00,,,-99.99,,2013-07-01 17:02:00,
2013-07-01 13:12:00,80.0,64.0,-100.00,East,80,1.0,6.0,59,0.00,,,-99.99,,2013-07-01 17:12:00,
2013-07-01 14:02:00,79.0,67.0,-100.00,ESE,105,0.0,3.0,67,0.00,,,-99.99,,2013-07-01 18:02:00,
2013-07-01 14:44:00,81.0,64.0,-100.00,SW,215,1.0,3.0,57,0.00,,,-99.99,,2013-07-01 18:44:00,
2013-07-01 15:44:00,84.0,64.0,-100.00,SSE,150,2.0,4.0,50,0.00,,,-99.99,,2013-07-01 19:44:00,
2013-07-01 16:02:00,84.0,64.0,-100.00,ESE,105,1.0,3.0,51,0.00,,,-99.99,,2013-07-01 20:02:00,
2013-07-01 16:11:00,84.0,63.0,-100.00,SE,145,1.0,4.0,48,0.00,,,-99.99,,2013-07-01 20:11:00,
2013-07-01 16:22:00,85.0,65.0,-100.00,SE,135,2.0,6.0,51,0.00,,,-99.99,,2013-07-01 20:22:00,
2013-07-01 16:34:00,86.0,66.0,-100.00,NE,55,1.0,4.0,51,0.00,,,-99.99,,2013-07-01 20:34:00,
2013-07-01 16:43:00,86.0,66.0,-100.00,ENE,65,1.0,5.0,50,0.00,,,-99.99,,2013-07-01 20:43:00,
2013-07-01 17:02:00,86.0,67.0,-100.00,East,85,1.0,4.0,53,0.00,,,-99.99,,2013-07-01 21:02:00,
2013-07-01 17:34:00,82.0,66.0,-100.00,ESE,105,0.0,2.0,58,0.00,,,-99.99,,2013-07-01 21:34:00,
2013-07-01 17:43:00,82.0,66.0,-100.00,East,90,0.0,2.0,58,0.00,,,-99.99,,2013-07-01 21:43:00,
2013-07-01 18:11:00,82.0,68.0,-100.00,North,10,0.0,3.0,61,0.00,,,-99.99,,2013-07-01 22:11:00,
2013-07-01 18:33:00,81.0,67.0,-100.00,NNW,330,0.0,2.0,64,0.00,,,-99.99,,2013-07-01 22:33:00,
2013-07-01 18:43:00,79.0,71.0,-100.00,NE,45,0.0,1.0,75,0.00,,,-99.99,,2013-07-01 22:43:00,
2013-07-01 18:53:00,78.0,71.0,-100.00,NNE,30,0.0,1.0,76,0.00,,,-99.99,,2013-07-01 22:53:00,
2013-07-01 19:01:00,77.0,69.0,-100.00,North,5,0.0,1.0,77,0.00,,,-99.99,,2013-07-01 23:01:00,
2013-07-01 19:11:00,78.0,66.0,-100.00,West,280,7.0,12.0,66,0.00,,,-99.99,,2013-07-01 23:11:00,
2013-07-01 19:22:00,76.0,65.0,-100.00,NW,315,7.0,12.0,69,0.00,,,-99.99,,2013-07-01 23:22:00,
2013-07-01 19:33:00,75.0,63.0,-100.00,NW,320,8.0,14.0,67,0.00,,,-99.99,,2013-07-01 23:33:00,
2013-07-01 20:12:00,71.0,62.0,-100.00,South,175,1.0,5.0,73,0.00,,,-99.99,,2013-07-02 00:12:00,
2013-07-01 20:22:00,71.0,63.0,-100.00,WNW,290,0.0,2.0,75,0.00,,,-99.99,,2013-07-02 00:22:00,
2013-07-01 20:43:00,68.0,64.0,-100.00,ENE,65,0.0,5.0,86,0.55,,,-99.99,,2013-07-02 00:43:00,
2013-07-01 20:53:00,68.0,64.0,-100.00,NE,55,0.0,2.0,87,0.00,,,-99.99,,2013-07-02 00:53:00,
2013-07-01 21:01:00,67.0,64.0,-100.00,East,95,0.0,4.0,88,0.00,,,-99.99,,2013-07-02 01:01:00,
2013-07-01 22:02:00,67.0,64.0,-100.00,East,100,0.0,2.0,90,0.00,,,-99.99,,2013-07-02 02:02:00,
2013-07-01 22:34:00,67.0,65.0,-100.00,East,95,0.0,0.0,91,0.00,,,-99.99,,2013-07-02 02:34:00,
2013-07-01 23:01:00,67.0,64.0,-100.00,SE,130,0.0,1.0,91,0.00,,,-99.99,,2013-07-02 03:01:00,
2013-07-01 23:12:00,67.0,64.0,-100.00,WNW,300,1.0,2.0,91,0.00,,,-99.99,,2013-07-02 03:12:00,
2013-07-01 23:24:00,67.0,64.0,-100.00,NW,320,1.0,2.0,91,0.00,,,-99.99,,2013-07-02 03:24:00,
2013-07-01 23:32:00,66.0,64.0,-100.00,NW,320,0.0,2.0,91,0.00,,,-99.99,,2013-07-02 03:32:00,
2013-07-01 23:43:00,66.0,64.0,-100.00,NNE,15,0.0,1.0,91,0.00,,,-99.99,,2013-07-02 03:43:00,
2013-07-01 23:53:00,66.0,63.0,-100.00,NNE,20,0.0,0.0,92,0.00,,,-99.99,,2013-07-02 03:53:00,